sensor_id;sensor_type;location;lat;lon;timestamp;pressure;altitude;pressure_sealevel;temperature;humidity
76406;BME280;65234;50.044;19.258;2023-02-03T00:00:42;99331.78;;;0.04;100.00
76406;BME280;65234;50.044;19.258;2023-02-03T00:03:28;99329.81;;;0.04;100.00
76406;BME280;65234;50.044;19.258;2023-02-03T00:05:55;99337.50;;;0.02;100.00
76406;BME280;65234;50.044;19.258;2023-02-03T00:08:22;99336.22;;;-0.01;100.00
76406;BME280;65234;50.044;19.258;2023-02-03T00:10:47;99335.44;;;-0.01;100.00
76406;BME280;65234;50.044;19.258;2023-02-03T00:13:14;99332.53;;;-0.05;100.00
76406;BME280;65234;50.044;19.258;2023-02-03T00:15:39;99336.66;;;-0.07;100.00
76406;BME280;65234;50.044;19.258;2023-02-03T00:18:05;99339.56;;;-0.12;100.00
76406;BME280;65234;50.044;19.258;2023-02-03T00:20:31;99340.66;;;-0.13;100.00
76406;BME280;65234;50.044;19.258;2023-02-03T00:23:03;99345.28;;;-0.14;100.00
76406;BME280;65234;50.044;19.258;2023-02-03T00:25:29;99342.75;;;-0.10;100.00
76406;BME280;65234;50.044;19.258;2023-02-03T00:27:55;99337.13;;;-0.14;100.00
76406;BME280;65234;50.044;19.258;2023-02-03T00:30:20;99347.72;;;-0.12;100.00
76406;BME280;65234;50.044;19.258;2023-02-03T00:32:46;99352.53;;;-0.09;100.00
76406;BME280;65234;50.044;19.258;2023-02-03T00:35:12;99350.28;;;-0.07;100.00
76406;BME280;65234;50.044;19.258;2023-02-03T00:37:38;99346.44;;;-0.06;100.00
76406;BME280;65234;50.044;19.258;2023-02-03T00:40:05;99354.16;;;-0.08;100.00
76406;BME280;65234;50.044;19.258;2023-02-03T00:42:33;99357.84;;;-0.04;100.00
76406;BME280;65234;50.044;19.258;2023-02-03T00:44:58;99358.44;;;-0.07;100.00
76406;BME280;65234;50.044;19.258;2023-02-03T00:47:24;99362.78;;;-0.06;100.00
76406;BME280;65234;50.044;19.258;2023-02-03T00:49:50;99368.25;;;-0.06;100.00
76406;BME280;65234;50.044;19.258;2023-02-03T00:52:16;99374.19;;;-0.04;100.00
76406;BME280;65234;50.044;19.258;2023-02-03T00:54:41;99376.91;;;-0.04;100.00
76406;BME280;65234;50.044;19.258;2023-02-03T00:57:09;99370.97;;;-0.06;100.00
76406;BME280;65234;50.044;19.258;2023-02-03T00:59:34;99379.94;;;-0.06;100.00
76406;BME280;65234;50.044;19.258;2023-02-03T01:02:00;99382.84;;;-0.02;100.00
76406;BME280;65234;50.044;19.258;2023-02-03T01:04:26;99377.69;;;-0.04;100.00
76406;BME280;65234;50.044;19.258;2023-02-03T01:06:52;99378.03;;;-0.05;100.00
76406;BME280;65234;50.044;19.258;2023-02-03T01:09:17;99375.28;;;-0.05;100.00
76406;BME280;65234;50.044;19.258;2023-02-03T01:11:43;99368.25;;;-0.06;100.00
76406;BME280;65234;50.044;19.258;2023-02-03T01:14:10;99363.91;;;-0.07;100.00
76406;BME280;65234;50.044;19.258;2023-02-03T01:16:36;99366.31;;;-0.06;100.00
76406;BME280;65234;50.044;19.258;2023-02-03T01:19:02;99364.41;;;-0.05;100.00
76406;BME280;65234;50.044;19.258;2023-02-03T01:21:28;99355.72;;;-0.07;100.00
76406;BME280;65234;50.044;19.258;2023-02-03T01:23:54;99354.56;;;-0.15;100.00
76406;BME280;65234;50.044;19.258;2023-02-03T01:26:22;99361.19;;;-0.07;100.00
76406;BME280;65234;50.044;19.258;2023-02-03T01:28:50;99361.00;;;-0.11;100.00
76406;BME280;65234;50.044;19.258;2023-02-03T01:31:19;99360.19;;;-0.11;100.00
76406;BME280;65234;50.044;19.258;2023-02-03T01:33:45;99360.19;;;-0.11;100.00
76406;BME280;65234;50.044;19.258;2023-02-03T01:36:12;99353.75;;;-0.15;100.00
76406;BME280;65234;50.044;19.258;2023-02-03T01:38:38;99357.81;;;-0.13;100.00
76406;BME280;65234;50.044;19.258;2023-02-03T01:41:06;99355.06;;;-0.13;100.00
76406;BME280;65234;50.044;19.258;2023-02-03T01:43:35;99358.09;;;-0.14;100.00
76406;BME280;65234;50.044;19.258;2023-02-03T01:46:04;99357.63;;;-0.16;100.00
76406;BME280;65234;50.044;19.258;2023-02-03T01:48:33;99354.56;;;-0.15;100.00
76406;BME280;65234;50.044;19.258;2023-02-03T01:51:01;99346.75;;;-0.16;100.00
76406;BME280;65234;50.044;19.258;2023-02-03T01:53:28;99349.59;;;-0.21;100.00
76406;BME280;65234;50.044;19.258;2023-02-03T01:55:55;99345.75;;;-0.20;100.00
76406;BME280;65234;50.044;19.258;2023-02-03T01:58:22;99344.13;;;-0.21;100.00
76406;BME280;65234;50.044;19.258;2023-02-03T02:00:51;99341.53;;;-0.26;100.00
76406;BME280;65234;50.044;19.258;2023-02-03T02:03:18;99339.16;;;-0.28;100.00
76406;BME280;65234;50.044;19.258;2023-02-03T02:05:49;99337.03;;;-0.31;100.00
76406;BME280;65234;50.044;19.258;2023-02-03T02:08:19;99334.31;;;-0.31;100.00
76406;BME280;65234;50.044;19.258;2023-02-03T02:10:45;99329.50;;;-0.34;100.00
76406;BME280;65234;50.044;19.258;2023-02-03T02:13:11;99328.50;;;-0.38;100.00
76406;BME280;65234;50.044;19.258;2023-02-03T02:15:43;99329.31;;;-0.37;100.00
76406;BME280;65234;50.044;19.258;2023-02-03T02:18:35;99332.69;;;-0.40;100.00
76406;BME280;65234;50.044;19.258;2023-02-03T02:21:23;99330.75;;;-0.40;100.00
76406;BME280;65234;50.044;19.258;2023-02-03T02:24:09;99322.09;;;-0.42;100.00
76406;BME280;65234;50.044;19.258;2023-02-03T02:26:49;99321.09;;;-0.46;100.00
76406;BME280;65234;50.044;19.258;2023-02-03T02:29:33;99317.56;;;-0.47;100.00
76406;BME280;65234;50.044;19.258;2023-02-03T02:32:11;99317.22;;;-0.54;100.00
76406;BME280;65234;50.044;19.258;2023-02-03T02:34:48;99318.16;;;-0.58;100.00
76406;BME280;65234;50.044;19.258;2023-02-03T02:37:23;99318.78;;;-0.61;100.00
76406;BME280;65234;50.044;19.258;2023-02-03T02:39:54;99329.47;;;-0.65;100.00
76406;BME280;65234;50.044;19.258;2023-02-03T02:42:26;99319.59;;;-0.61;100.00
76406;BME280;65234;50.044;19.258;2023-02-03T02:45:01;99315.75;;;-0.60;100.00
76406;BME280;65234;50.044;19.258;2023-02-03T02:47:31;99323.72;;;-0.63;100.00
76406;BME280;65234;50.044;19.258;2023-02-03T02:50:00;99319.59;;;-0.61;100.00
76406;BME280;65234;50.044;19.258;2023-02-03T02:52:31;99314.13;;;-0.61;100.00
76406;BME280;65234;50.044;19.258;2023-02-03T02:55:04;99308.19;;;-0.63;100.00
76406;BME280;65234;50.044;19.258;2023-02-03T02:57:34;99310.09;;;-0.63;100.00
76406;BME280;65234;50.044;19.258;2023-02-03T03:00:00;99289.31;;;-0.68;100.00
76406;BME280;65234;50.044;19.258;2023-02-03T03:02:32;99281.94;;;-0.67;100.00
76406;BME280;65234;50.044;19.258;2023-02-03T03:05:02;99272.81;;;-0.71;100.00
76406;BME280;65234;50.044;19.258;2023-02-03T03:07:32;99266.00;;;-0.82;100.00
76406;BME280;65234;50.044;19.258;2023-02-03T03:10:03;99263.97;;;-0.77;100.00
76406;BME280;65234;50.044;19.258;2023-02-03T03:12:34;99259.44;;;-0.81;100.00
76406;BME280;65234;50.044;19.258;2023-02-03T03:15:05;99275.59;;;-0.85;100.00
76406;BME280;65234;50.044;19.258;2023-02-03T03:17:38;99283.84;;;-0.90;100.00
76406;BME280;65234;50.044;19.258;2023-02-03T03:20:09;99292.75;;;-0.98;100.00
76406;BME280;65234;50.044;19.258;2023-02-03T03:22:44;99302.81;;;-0.99;100.00
76406;BME280;65234;50.044;19.258;2023-02-03T03:25:15;99306.50;;;-1.03;100.00
76406;BME280;65234;50.044;19.258;2023-02-03T03:27:45;99324.41;;;-1.02;100.00
76406;BME280;65234;50.044;19.258;2023-02-03T03:30:17;99324.72;;;-1.04;100.00
76406;BME280;65234;50.044;19.258;2023-02-03T03:32:47;99325.31;;;-1.07;100.00
76406;BME280;65234;50.044;19.258;2023-02-03T03:35:13;99324.22;;;-1.06;100.00
76406;BME280;65234;50.044;19.258;2023-02-03T03:37:42;99314.25;;;-1.10;100.00
76406;BME280;65234;50.044;19.258;2023-02-03T03:40:11;99307.53;;;-1.13;100.00
76406;BME280;65234;50.044;19.258;2023-02-03T03:42:44;99307.53;;;-1.13;100.00
76406;BME280;65234;50.044;19.258;2023-02-03T03:45:15;99303.19;;;-1.14;100.00
76406;BME280;65234;50.044;19.258;2023-02-03T03:47:48;99311.97;;;-1.17;100.00
76406;BME280;65234;50.044;19.258;2023-02-03T03:50:18;99311.16;;;-1.17;100.00
76406;BME280;65234;50.044;19.258;2023-02-03T03:52:47;99298.88;;;-1.15;100.00
76406;BME280;65234;50.044;19.258;2023-02-03T03:55:15;99290.03;;;-1.20;100.00
76406;BME280;65234;50.044;19.258;2023-02-03T03:57:45;99277.88;;;-1.23;100.00
76406;BME280;65234;50.044;19.258;2023-02-03T04:00:18;99271.63;;;-1.23;100.00
76406;BME280;65234;50.044;19.258;2023-02-03T04:02:49;99263.47;;;-1.23;100.00
76406;BME280;65234;50.044;19.258;2023-02-03T04:05:15;99265.69;;;-1.25;100.00
76406;BME280;65234;50.044;19.258;2023-02-03T04:07:43;99264.06;;;-1.26;100.00
76406;BME280;65234;50.044;19.258;2023-02-03T04:10:16;99256.53;;;-1.29;100.00
76406;BME280;65234;50.044;19.258;2023-02-03T04:12:42;99259.88;;;-1.32;100.00
76406;BME280;65234;50.044;19.258;2023-02-03T04:15:08;99258.78;;;-1.31;100.00
76406;BME280;65234;50.044;19.258;2023-02-03T04:17:34;99267.41;;;-1.29;100.00
76406;BME280;65234;50.044;19.258;2023-02-03T04:20:01;99272.38;;;-1.31;100.00
76406;BME280;65234;50.044;19.258;2023-02-03T04:22:27;99260.06;;;-1.29;100.00
76406;BME280;65234;50.044;19.258;2023-02-03T04:24:52;99262.91;;;-1.34;100.00
76406;BME280;65234;50.044;19.258;2023-02-03T04:27:18;99262.78;;;-1.29;100.00
76406;BME280;65234;50.044;19.258;2023-02-03T04:29:44;99264.59;;;-1.24;100.00
76406;BME280;65234;50.044;19.258;2023-02-03T04:32:10;99254.81;;;-1.25;100.00
76406;BME280;65234;50.044;19.258;2023-02-03T04:34:35;99249.56;;;-1.22;100.00
76406;BME280;65234;50.044;19.258;2023-02-03T04:37:03;99250.38;;;-1.21;100.00
76406;BME280;65234;50.044;19.258;2023-02-03T04:39:28;99257.31;;;-1.15;100.00
76406;BME280;65234;50.044;19.258;2023-02-03T04:41:54;99245.50;;;-1.11;100.00
76406;BME280;65234;50.044;19.258;2023-02-03T04:44:20;99238.94;;;-1.10;100.00
76406;BME280;65234;50.044;19.258;2023-02-03T04:46:45;99234.00;;;-1.08;100.00
76406;BME280;65234;50.044;19.258;2023-02-03T04:49:11;99228.56;;;-1.08;100.00
76406;BME280;65234;50.044;19.258;2023-02-03T04:51:37;99228.25;;;-1.06;100.00
76406;BME280;65234;50.044;19.258;2023-02-03T04:54:04;99226.97;;;-1.09;100.00
76406;BME280;65234;50.044;19.258;2023-02-03T04:56:30;99214.97;;;-1.08;100.00
76406;BME280;65234;50.044;19.258;2023-02-03T04:58:55;99209.22;;;-1.06;100.00
76406;BME280;65234;50.044;19.258;2023-02-03T05:01:21;99202.69;;;-1.05;100.00
76406;BME280;65234;50.044;19.258;2023-02-03T05:03:47;99200.59;;;-1.08;100.00
76406;BME280;65234;50.044;19.258;2023-02-03T05:06:13;99193.25;;;-1.08;100.00
76406;BME280;65234;50.044;19.258;2023-02-03T05:08:38;99205.41;;;-1.05;100.00
76406;BME280;65234;50.044;19.258;2023-02-03T05:11:06;99200.41;;;-1.12;100.00
76406;BME280;65234;50.044;19.258;2023-02-03T05:13:31;99204.41;;;-1.09;100.00
76406;BME280;65234;50.044;19.258;2023-02-03T05:15:57;99196.25;;;-1.09;100.00
76406;BME280;65234;50.044;19.258;2023-02-03T05:18:23;99192.91;;;-1.06;100.00
76406;BME280;65234;50.044;19.258;2023-02-03T05:20:49;99186.38;;;-1.05;100.00
76406;BME280;65234;50.044;19.258;2023-02-03T05:23:14;99178.84;;;-1.08;100.00
76406;BME280;65234;50.044;19.258;2023-02-03T05:25:42;99166.34;;;-1.09;100.00
76406;BME280;65234;50.044;19.258;2023-02-03T05:28:09;99153.88;;;-1.10;100.00
76406;BME280;65234;50.044;19.258;2023-02-03T05:30:35;99151.66;;;-1.08;100.00
76406;BME280;65234;50.044;19.258;2023-02-03T05:33:01;99140.16;;;-1.05;100.00
76406;BME280;65234;50.044;19.258;2023-02-03T05:35:26;99132.50;;;-1.03;100.00
76406;BME280;65234;50.044;19.258;2023-02-03T05:37:52;99133.91;;;-1.06;100.00
76406;BME280;65234;50.044;19.258;2023-02-03T05:40:18;99129.28;;;-1.05;100.00
76406;BME280;65234;50.044;19.258;2023-02-03T05:42:47;99133.78;;;-1.01;100.00
76406;BME280;65234;50.044;19.258;2023-02-03T05:45:15;99132.16;;;-1.02;100.00
76406;BME280;65234;50.044;19.258;2023-02-03T05:47:41;99134.72;;;-1.05;100.00
76406;BME280;65234;50.044;19.258;2023-02-03T05:50:07;99134.59;;;-1.00;100.00
76406;BME280;65234;50.044;19.258;2023-02-03T05:52:33;99135.22;;;-1.03;100.00
76406;BME280;65234;50.044;19.258;2023-02-03T05:54:59;99136.63;;;-1.06;100.00
76406;BME280;65234;50.044;19.258;2023-02-03T05:57:25;99138.09;;;-1.00;100.00
76406;BME280;65234;50.044;19.258;2023-02-03T05:59:50;99136.00;;;-1.03;100.00
76406;BME280;65234;50.044;19.258;2023-02-03T06:02:17;99136.97;;;-0.99;100.00
76406;BME280;65234;50.044;19.258;2023-02-03T06:04:43;99118.06;;;-1.12;100.00
76406;BME280;65234;50.044;19.258;2023-02-03T06:07:09;99121.63;;;-1.03;100.00
76406;BME280;65234;50.044;19.258;2023-02-03T06:09:34;99128.03;;;-0.99;100.00
76406;BME280;65234;50.044;19.258;2023-02-03T06:12:00;99125.00;;;-0.98;100.00
76406;BME280;65234;50.044;19.258;2023-02-03T06:14:26;99124.06;;;-0.93;100.00
76406;BME280;65234;50.044;19.258;2023-02-03T06:16:52;99112.84;;;-1.00;100.00
76406;BME280;65234;50.044;19.258;2023-02-03T06:19:19;99101.97;;;-1.00;100.00
76406;BME280;65234;50.044;19.258;2023-02-03T06:21:44;99110.16;;;-0.91;100.00
76406;BME280;65234;50.044;19.258;2023-02-03T06:24:10;99097.16;;;-0.95;100.00
76406;BME280;65234;50.044;19.258;2023-02-03T06:26:36;99106.00;;;-0.89;100.00
76406;BME280;65234;50.044;19.258;2023-02-03T06:29:02;99094.16;;;-0.93;100.00
76406;BME280;65234;50.044;19.258;2023-02-03T06:31:28;99093.50;;;-0.90;100.00
76406;BME280;65234;50.044;19.258;2023-02-03T06:33:53;99092.56;;;-0.85;100.00
76406;BME280;65234;50.044;19.258;2023-02-03T06:36:20;99081.88;;;-0.82;100.00
76406;BME280;65234;50.044;19.258;2023-02-03T06:38:46;99081.88;;;-0.82;100.00
76406;BME280;65234;50.044;19.258;2023-02-03T06:41:12;99065.53;;;-0.82;100.00
76406;BME280;65234;50.044;19.258;2023-02-03T06:43:37;99069.06;;;-0.81;100.00
76406;BME280;65234;50.044;19.258;2023-02-03T06:46:03;99069.88;;;-0.81;100.00
76406;BME280;65234;50.044;19.258;2023-02-03T06:48:29;99078.03;;;-0.81;100.00
76406;BME280;65234;50.044;19.258;2023-02-03T06:50:55;99070.84;;;-0.77;100.00
76406;BME280;65234;50.044;19.258;2023-02-03T06:53:22;99057.41;;;-0.73;100.00
76406;BME280;65234;50.044;19.258;2023-02-03T06:55:47;99063.81;;;-0.69;100.00
76406;BME280;65234;50.044;19.258;2023-02-03T06:58:13;99055.50;;;-0.73;100.00
76406;BME280;65234;50.044;19.258;2023-02-03T07:00:39;99056.16;;;-0.67;100.00
76406;BME280;65234;50.044;19.258;2023-02-03T07:03:05;99046.72;;;-0.61;100.00
76406;BME280;65234;50.044;19.258;2023-02-03T07:05:31;99046.41;;;-0.60;100.00
76406;BME280;65234;50.044;19.258;2023-02-03T07:07:56;99039.22;;;-0.56;100.00
76406;BME280;65234;50.044;19.258;2023-02-03T07:10:24;99035.22;;;-0.50;100.00
76406;BME280;65234;50.044;19.258;2023-02-03T07:12:49;99031.69;;;-0.50;100.00
76406;BME280;65234;50.044;19.258;2023-02-03T07:15:15;99030.44;;;-0.44;100.00
76406;BME280;65234;50.044;19.258;2023-02-03T07:17:41;99025.13;;;-0.49;100.00
76406;BME280;65234;50.044;19.258;2023-02-03T07:20:07;99024.50;;;-0.46;100.00
76406;BME280;65234;50.044;19.258;2023-02-03T07:22:33;99023.06;;;-0.43;100.00
76406;BME280;65234;50.044;19.258;2023-02-03T07:24:59;99007.22;;;-0.41;100.00
76406;BME280;65234;50.044;19.258;2023-02-03T07:27:26;99000.66;;;-0.49;100.00
76406;BME280;65234;50.044;19.258;2023-02-03T07:29:51;99006.41;;;-0.42;100.00
76406;BME280;65234;50.044;19.258;2023-02-03T07:32:17;99002.09;;;-0.34;100.00
76406;BME280;65234;50.044;19.258;2023-02-03T07:34:43;98992.66;;;-0.37;100.00
76406;BME280;65234;50.044;19.258;2023-02-03T07:37:08;98984.94;;;-0.35;100.00
76406;BME280;65234;50.044;19.258;2023-02-03T07:39:34;98977.28;;;-0.33;100.00
76406;BME280;65234;50.044;19.258;2023-02-03T07:42:00;98974.41;;;-0.28;100.00
76406;BME280;65234;50.044;19.258;2023-02-03T07:44:27;98980.16;;;-0.21;100.00
76406;BME280;65234;50.044;19.258;2023-02-03T07:46:53;98972.94;;;-0.25;100.00
76406;BME280;65234;50.044;19.258;2023-02-03T07:49:18;98979.19;;;-0.25;100.00
76406;BME280;65234;50.044;19.258;2023-02-03T07:51:44;98985.41;;;-0.16;100.00
76406;BME280;65234;50.044;19.258;2023-02-03T07:54:10;98977.59;;;-0.09;100.00
76406;BME280;65234;50.044;19.258;2023-02-03T07:56:35;98967.66;;;-0.05;100.00
76406;BME280;65234;50.044;19.258;2023-02-03T07:59:02;98977.25;;;0.02;100.00
76406;BME280;65234;50.044;19.258;2023-02-03T08:01:29;98968.75;;;0.03;100.00
76406;BME280;65234;50.044;19.258;2023-02-03T08:03:55;98955.44;;;0.02;100.00
76406;BME280;65234;50.044;19.258;2023-02-03T08:06:20;98951.75;;;0.06;100.00
76406;BME280;65234;50.044;19.258;2023-02-03T08:08:46;98943.44;;;0.11;100.00
76406;BME280;65234;50.044;19.258;2023-02-03T08:11:12;98944.84;;;0.17;100.00
76406;BME280;65234;50.044;19.258;2023-02-03T08:13:37;98940.38;;;0.13;100.00
76406;BME280;65234;50.044;19.258;2023-02-03T08:16:04;98931.38;;;0.21;100.00
76406;BME280;65234;50.044;19.258;2023-02-03T08:18:31;98936.16;;;0.24;100.00
76406;BME280;65234;50.044;19.258;2023-02-03T08:20:56;98929.56;;;0.33;100.00
76406;BME280;65234;50.044;19.258;2023-02-03T08:23:22;98929.72;;;0.37;100.00
76406;BME280;65234;50.044;19.258;2023-02-03T08:25:51;98918.00;;;0.36;100.00
76406;BME280;65234;50.044;19.258;2023-02-03T08:28:17;98919.63;;;0.37;100.00
76406;BME280;65234;50.044;19.258;2023-02-03T08:30:43;98918.28;;;0.43;100.00
76406;BME280;65234;50.044;19.258;2023-02-03T08:33:09;98918.22;;;0.31;100.00
76406;BME280;65234;50.044;19.258;2023-02-03T08:35:36;98909.53;;;0.38;100.00
76406;BME280;65234;50.044;19.258;2023-02-03T08:38:02;98915.41;;;0.48;100.00
76406;BME280;65234;50.044;19.258;2023-02-03T08:40:27;98908.03;;;0.49;100.00
76406;BME280;65234;50.044;19.258;2023-02-03T08:42:53;98903.56;;;0.44;100.00
76406;BME280;65234;50.044;19.258;2023-02-03T08:45:19;98907.34;;;0.52;100.00
76406;BME280;65234;50.044;19.258;2023-02-03T08:47:45;98905.13;;;0.54;100.00
76406;BME280;65234;50.044;19.258;2023-02-03T08:50:10;98901.19;;;0.64;100.00
76406;BME280;65234;50.044;19.258;2023-02-03T08:52:38;98893.50;;;0.66;100.00
76406;BME280;65234;50.044;19.258;2023-02-03T08:55:04;98884.22;;;0.67;100.00
76406;BME280;65234;50.044;19.258;2023-02-03T08:57:31;98884.22;;;0.67;100.00
76406;BME280;65234;50.044;19.258;2023-02-03T08:59:57;98878.91;;;0.70;100.00
76406;BME280;65234;50.044;19.258;2023-02-03T09:02:23;98875.50;;;0.73;100.00
76406;BME280;65234;50.044;19.258;2023-02-03T09:05:01;98865.81;;;0.84;100.00
76406;BME280;65234;50.044;19.258;2023-02-03T09:07:27;98876.41;;;0.86;100.00
76406;BME280;65234;50.044;19.258;2023-02-03T09:09:53;98880.56;;;0.83;100.00
76406;BME280;65234;50.044;19.258;2023-02-03T09:12:19;98872.38;;;0.83;100.00
76406;BME280;65234;50.044;19.258;2023-02-03T09:14:45;98871.59;;;0.83;100.00
76406;BME280;65234;50.044;19.258;2023-02-03T09:17:11;98868.06;;;0.82;100.00
76406;BME280;65234;50.044;19.258;2023-02-03T09:19:36;98855.56;;;0.81;100.00
76406;BME280;65234;50.044;19.258;2023-02-03T09:22:03;98853.66;;;0.82;100.00
76406;BME280;65234;50.044;19.258;2023-02-03T09:24:28;98843.41;;;0.79;100.00
76406;BME280;65234;50.044;19.258;2023-02-03T09:26:55;98843.19;;;0.84;100.00
76406;BME280;65234;50.044;19.258;2023-02-03T09:29:21;98846.84;;;0.88;100.00
76406;BME280;65234;50.044;19.258;2023-02-03T09:31:48;98833.56;;;0.86;100.00
76406;BME280;65234;50.044;19.258;2023-02-03T09:34:13;98827.75;;;0.88;100.00
76406;BME280;65234;50.044;19.258;2023-02-03T09:36:39;98811.09;;;0.89;100.00
76406;BME280;65234;50.044;19.258;2023-02-03T09:39:05;98805.94;;;0.88;100.00
76406;BME280;65234;50.044;19.258;2023-02-03T09:41:51;98793.72;;;0.94;100.00
76406;BME280;65234;50.044;19.258;2023-02-03T09:44:26;98781.22;;;0.93;100.00
76406;BME280;65234;50.044;19.258;2023-02-03T09:46:58;98770.75;;;0.95;100.00
76406;BME280;65234;50.044;19.258;2023-02-03T09:49:28;98762.56;;;0.95;100.00
76406;BME280;65234;50.044;19.258;2023-02-03T09:52:02;98754.38;;;0.95;100.00
76406;BME280;65234;50.044;19.258;2023-02-03T09:54:36;98752.59;;;0.99;100.00
76406;BME280;65234;50.044;19.258;2023-02-03T09:57:12;98730.44;;;1.01;100.00
76406;BME280;65234;50.044;19.258;2023-02-03T09:59:41;98729.78;;;1.04;100.00
76406;BME280;65234;50.044;19.258;2023-02-03T10:02:33;98719.66;;;1.04;100.00
76406;BME280;65234;50.044;19.258;2023-02-03T10:05:07;98702.72;;;0.99;100.00
76406;BME280;65234;50.044;19.258;2023-02-03T10:07:42;98704.19;;;0.96;100.00
76406;BME280;65234;50.044;19.258;2023-02-03T10:10:17;98690.97;;;0.86;100.00
76406;BME280;65234;50.044;19.258;2023-02-03T10:13:03;98682.31;;;0.84;100.00
76406;BME280;65234;50.044;19.258;2023-02-03T10:15:51;98670.38;;;0.76;100.00
76406;BME280;65234;50.044;19.258;2023-02-03T10:18:24;98666.47;;;0.65;100.00
76406;BME280;65234;50.044;19.258;2023-02-03T10:20:54;98655.25;;;0.67;100.00
76406;BME280;65234;50.044;19.258;2023-02-03T10:23:26;98650.72;;;0.71;100.00
76406;BME280;65234;50.044;19.258;2023-02-03T10:25:54;98637.16;;;0.62;100.00
76406;BME280;65234;50.044;19.258;2023-02-03T10:28:22;98632.38;;;0.59;100.00
76406;BME280;65234;50.044;19.258;2023-02-03T10:30:53;98615.88;;;0.56;100.00
76406;BME280;65234;50.044;19.258;2023-02-03T10:33:20;98610.72;;;0.63;100.00
76406;BME280;65234;50.044;19.258;2023-02-03T10:35:49;98605.13;;;0.59;100.00
76406;BME280;65234;50.044;19.258;2023-02-03T10:38:29;98597.28;;;0.58;100.00
76406;BME280;65234;50.044;19.258;2023-02-03T10:40:58;98585.25;;;0.59;100.00
76406;BME280;65234;50.044;19.258;2023-02-03T10:43:25;98579.44;;;0.60;100.00
76406;BME280;65234;50.044;19.258;2023-02-03T10:45:54;98572.28;;;0.56;100.00
76406;BME280;65234;50.044;19.258;2023-02-03T10:48:23;98555.94;;;0.56;100.00
76406;BME280;65234;50.044;19.258;2023-02-03T10:50:51;98552.06;;;0.57;100.00
76406;BME280;65234;50.044;19.258;2023-02-03T10:53:22;98539.72;;;0.59;100.00
76406;BME280;65234;50.044;19.258;2023-02-03T10:55:50;98542.91;;;0.61;100.00
76406;BME280;65234;50.044;19.258;2023-02-03T10:58:22;98533.59;;;0.62;100.00
76406;BME280;65234;50.044;19.258;2023-02-03T11:00:55;98526.75;;;0.56;100.00
76406;BME280;65234;50.044;19.258;2023-02-03T11:03:23;98509.94;;;0.54;100.00
76406;BME280;65234;50.044;19.258;2023-02-03T11:06:03;98503.81;;;0.57;100.00
76406;BME280;65234;50.044;19.258;2023-02-03T11:08:30;98494.16;;;0.60;100.00
76406;BME280;65234;50.044;19.258;2023-02-03T11:11:02;98472.34;;;0.60;100.00
76406;BME280;65234;50.044;19.258;2023-02-03T11:13:28;98465.56;;;0.54;100.00
76406;BME280;65234;50.044;19.258;2023-02-03T11:15:57;98453.63;;;0.58;100.00
76406;BME280;65234;50.044;19.258;2023-02-03T11:18:40;98452.38;;;0.56;100.00
76406;BME280;65234;50.044;19.258;2023-02-03T11:21:08;98450.00;;;0.54;100.00
76406;BME280;65234;50.044;19.258;2023-02-03T11:23:36;98455.69;;;0.61;100.00
76406;BME280;65234;50.044;19.258;2023-02-03T11:26:10;98441.84;;;0.66;100.00
76406;BME280;65234;50.044;19.258;2023-02-03T11:28:41;98433.88;;;0.61;100.00
76406;BME280;65234;50.044;19.258;2023-02-03T11:31:15;98415.72;;;0.65;100.00
76406;BME280;65234;50.044;19.258;2023-02-03T11:33:46;98414.00;;;0.61;100.00
76406;BME280;65234;50.044;19.258;2023-02-03T11:36:12;98403.56;;;0.63;100.00
76406;BME280;65234;50.044;19.258;2023-02-03T11:38:38;98385.63;;;0.62;100.00
76406;BME280;65234;50.044;19.258;2023-02-03T11:41:04;98388.13;;;0.67;100.00
76406;BME280;65234;50.044;19.258;2023-02-03T11:43:30;98377.22;;;0.67;100.00
76406;BME280;65234;50.044;19.258;2023-02-03T11:46:00;98356.78;;;0.61;100.00
76406;BME280;65234;50.044;19.258;2023-02-03T11:48:31;98351.69;;;0.59;100.00
76406;BME280;65234;50.044;19.258;2023-02-03T11:51:03;98344.63;;;0.58;100.00
76406;BME280;65234;50.044;19.258;2023-02-03T11:53:44;98339.72;;;0.64;100.00
76406;BME280;65234;50.044;19.258;2023-02-03T11:56:25;98321.22;;;0.69;100.00
76406;BME280;65234;50.044;19.258;2023-02-03T11:59:22;98311.31;;;0.77;100.00
76406;BME280;65234;50.044;19.258;2023-02-03T12:02:22;98303.47;;;0.75;100.00
76406;BME280;65234;50.044;19.258;2023-02-03T12:05:12;98296.09;;;0.76;100.00
76406;BME280;65234;50.044;19.258;2023-02-03T12:07:50;98285.53;;;0.86;100.00
76406;BME280;65234;50.044;19.258;2023-02-03T12:10:30;98275.53;;;0.78;100.00
76406;BME280;65234;50.044;19.258;2023-02-03T12:13:03;98268.50;;;0.77;100.00
76406;BME280;65234;50.044;19.258;2023-02-03T12:15:56;98269.50;;;0.85;100.00
76406;BME280;65234;50.044;19.258;2023-02-03T12:18:40;98257.19;;;0.91;100.00
76406;BME280;65234;50.044;19.258;2023-02-03T12:21:24;98251.06;;;0.94;100.00
76406;BME280;65234;50.044;19.258;2023-02-03T12:23:59;98238.22;;;0.94;100.00
76406;BME280;65234;50.044;19.258;2023-02-03T12:26:34;98236.97;;;0.92;100.00
76406;BME280;65234;50.044;19.258;2023-02-03T12:29:08;98233.66;;;0.99;100.00
76406;BME280;65234;50.044;19.258;2023-02-03T12:31:38;98215.31;;;0.83;100.00
76406;BME280;65234;50.044;19.258;2023-02-03T12:34:14;98215.16;;;0.92;100.00
76406;BME280;65234;50.044;19.258;2023-02-03T12:36:47;98204.34;;;0.95;100.00
76406;BME280;65234;50.044;19.258;2023-02-03T12:39:19;98195.38;;;0.95;100.00
76406;BME280;65234;50.044;19.258;2023-02-03T12:41:49;98180.97;;;0.94;100.00
76406;BME280;65234;50.044;19.258;2023-02-03T12:44:21;98170.69;;;1.04;100.00
76406;BME280;65234;50.044;19.258;2023-02-03T12:46:52;98162.50;;;1.04;100.00
76406;BME280;65234;50.044;19.258;2023-02-03T12:49:28;98161.44;;;1.08;100.00
76406;BME280;65234;50.044;19.258;2023-02-03T12:51:58;98151.88;;;1.14;100.00